sensor_id;sensor_type;location;lat;lon;timestamp;P1;durP1;ratioP1;P2;durP2;ratioP2
68942;SDS011;60852;52.190;4.422;2022-09-02T00:00:50;1.36;;;1.36;;
68942;SDS011;60852;52.190;4.422;2022-09-02T00:03:19;1.45;;;1.45;;
68942;SDS011;60852;52.190;4.422;2022-09-02T00:05:45;1.31;;;1.31;;
68942;SDS011;60852;52.190;4.422;2022-09-02T00:08:11;1.37;;;1.37;;
68942;SDS011;60852;52.190;4.422;2022-09-02T00:10:38;1.38;;;1.38;;
68942;SDS011;60852;52.190;4.422;2022-09-02T00:13:06;1.28;;;1.28;;
68942;SDS011;60852;52.190;4.422;2022-09-02T00:15:34;1.28;;;1.28;;
68942;SDS011;60852;52.190;4.422;2022-09-02T00:18:00;1.20;;;1.20;;
68942;SDS011;60852;52.190;4.422;2022-09-02T00:20:28;1.23;;;1.23;;
68942;SDS011;60852;52.190;4.422;2022-09-02T00:22:54;1.45;;;1.45;;
68942;SDS011;60852;52.190;4.422;2022-09-02T00:25:21;1.31;;;1.31;;
68942;SDS011;60852;52.190;4.422;2022-09-02T00:27:50;1.29;;;1.29;;
68942;SDS011;60852;52.190;4.422;2022-09-02T00:30:15;1.33;;;1.33;;
68942;SDS011;60852;52.190;4.422;2022-09-02T00:32:41;1.37;;;1.37;;
68942;SDS011;60852;52.190;4.422;2022-09-02T00:35:07;1.26;;;1.26;;
68942;SDS011;60852;52.190;4.422;2022-09-02T00:37:34;1.44;;;1.44;;
68942;SDS011;60852;52.190;4.422;2022-09-02T00:40:01;1.35;;;1.35;;
68942;SDS011;60852;52.190;4.422;2022-09-02T00:42:28;1.25;;;1.25;;
68942;SDS011;60852;52.190;4.422;2022-09-02T00:44:53;1.36;;;1.36;;
68942;SDS011;60852;52.190;4.422;2022-09-02T00:47:19;1.19;;;1.19;;
68942;SDS011;60852;52.190;4.422;2022-09-02T00:49:48;1.30;;;1.30;;
68942;SDS011;60852;52.190;4.422;2022-09-02T00:52:18;1.37;;;1.37;;
68942;SDS011;60852;52.190;4.422;2022-09-02T00:57:32;1.29;;;1.29;;
68942;SDS011;60852;52.190;4.422;2022-09-02T01:00:06;1.39;;;1.39;;
68942;SDS011;60852;52.190;4.422;2022-09-02T01:03:04;1.39;;;1.39;;
68942;SDS011;60852;52.190;4.422;2022-09-02T01:05:34;1.40;;;1.40;;
68942;SDS011;60852;52.190;4.422;2022-09-02T01:08:03;1.37;;;1.37;;
68942;SDS011;60852;52.190;4.422;2022-09-02T01:10:31;1.42;;;1.42;;
68942;SDS011;60852;52.190;4.422;2022-09-02T01:13:04;1.35;;;1.35;;
68942;SDS011;60852;52.190;4.422;2022-09-02T01:15:33;1.42;;;1.42;;
68942;SDS011;60852;52.190;4.422;2022-09-02T01:18:02;1.25;;;1.25;;
68942;SDS011;60852;52.190;4.422;2022-09-02T01:20:30;1.39;;;1.39;;
68942;SDS011;60852;52.190;4.422;2022-09-02T01:22:57;1.41;;;1.41;;
68942;SDS011;60852;52.190;4.422;2022-09-02T01:25:24;1.32;;;1.32;;
68942;SDS011;60852;52.190;4.422;2022-09-02T01:27:52;1.43;;;1.43;;
68942;SDS011;60852;52.190;4.422;2022-09-02T01:30:24;1.35;;;1.35;;
68942;SDS011;60852;52.190;4.422;2022-09-02T01:32:51;1.50;;;1.50;;
68942;SDS011;60852;52.190;4.422;2022-09-02T01:35:17;1.35;;;1.35;;
68942;SDS011;60852;52.190;4.422;2022-09-02T01:37:44;1.40;;;1.40;;
68942;SDS011;60852;52.190;4.422;2022-09-02T01:40:11;1.29;;;1.29;;
68942;SDS011;60852;52.190;4.422;2022-09-02T01:42:40;1.42;;;1.42;;
68942;SDS011;60852;52.190;4.422;2022-09-02T01:45:07;1.36;;;1.36;;
68942;SDS011;60852;52.190;4.422;2022-09-02T01:47:33;1.33;;;1.33;;
68942;SDS011;60852;52.190;4.422;2022-09-02T01:50:00;1.44;;;1.44;;
68942;SDS011;60852;52.190;4.422;2022-09-02T01:52:26;1.14;;;1.14;;
68942;SDS011;60852;52.190;4.422;2022-09-02T01:54:53;1.38;;;1.38;;
68942;SDS011;60852;52.190;4.422;2022-09-02T01:57:19;1.35;;;1.35;;
68942;SDS011;60852;52.190;4.422;2022-09-02T01:59:48;1.44;;;1.44;;
68942;SDS011;60852;52.190;4.422;2022-09-02T02:02:18;1.43;;;1.43;;
68942;SDS011;60852;52.190;4.422;2022-09-02T02:04:48;1.39;;;1.39;;
68942;SDS011;60852;52.190;4.422;2022-09-02T02:07:14;1.44;;;1.44;;
68942;SDS011;60852;52.190;4.422;2022-09-02T02:09:42;1.41;;;1.41;;
68942;SDS011;60852;52.190;4.422;2022-09-02T02:12:08;1.35;;;1.35;;
68942;SDS011;60852;52.190;4.422;2022-09-02T02:14:34;1.54;;;1.54;;
68942;SDS011;60852;52.190;4.422;2022-09-02T02:17:00;1.34;;;1.34;;
68942;SDS011;60852;52.190;4.422;2022-09-02T02:19:27;1.43;;;1.43;;
68942;SDS011;60852;52.190;4.422;2022-09-02T02:21:53;1.48;;;1.48;;
68942;SDS011;60852;52.190;4.422;2022-09-02T02:24:19;1.31;;;1.31;;
68942;SDS011;60852;52.190;4.422;2022-09-02T02:26:45;1.41;;;1.41;;
68942;SDS011;60852;52.190;4.422;2022-09-02T02:29:11;1.40;;;1.40;;
68942;SDS011;60852;52.190;4.422;2022-09-02T02:31:38;1.33;;;1.33;;
68942;SDS011;60852;52.190;4.422;2022-09-02T02:34:04;1.34;;;1.34;;
68942;SDS011;60852;52.190;4.422;2022-09-02T02:36:29;1.51;;;1.51;;
68942;SDS011;60852;52.190;4.422;2022-09-02T02:38:55;1.51;;;1.51;;
68942;SDS011;60852;52.190;4.422;2022-09-02T02:41:21;1.56;;;1.56;;
68942;SDS011;60852;52.190;4.422;2022-09-02T02:43:46;1.48;;;1.48;;
68942;SDS011;60852;52.190;4.422;2022-09-02T02:46:12;1.47;;;1.47;;
68942;SDS011;60852;52.190;4.422;2022-09-02T02:48:39;1.50;;;1.50;;
68942;SDS011;60852;52.190;4.422;2022-09-02T02:51:05;1.56;;;1.56;;
68942;SDS011;60852;52.190;4.422;2022-09-02T02:53:32;1.43;;;1.43;;
68942;SDS011;60852;52.190;4.422;2022-09-02T02:55:58;1.46;;;1.46;;
68942;SDS011;60852;52.190;4.422;2022-09-02T02:58:24;1.58;;;1.58;;
68942;SDS011;60852;52.190;4.422;2022-09-02T03:00:50;1.48;;;1.48;;
68942;SDS011;60852;52.190;4.422;2022-09-02T03:03:15;1.59;;;1.59;;
68942;SDS011;60852;52.190;4.422;2022-09-02T03:05:44;1.40;;;1.40;;
68942;SDS011;60852;52.190;4.422;2022-09-02T03:08:11;1.65;;;1.65;;
68942;SDS011;60852;52.190;4.422;2022-09-02T03:10:37;1.57;;;1.57;;
68942;SDS011;60852;52.190;4.422;2022-09-02T03:13:05;1.67;;;1.67;;
68942;SDS011;60852;52.190;4.422;2022-09-02T03:15:30;1.48;;;1.48;;
68942;SDS011;60852;52.190;4.422;2022-09-02T03:17:56;1.59;;;1.59;;
68942;SDS011;60852;52.190;4.422;2022-09-02T03:20:22;1.57;;;1.57;;
68942;SDS011;60852;52.190;4.422;2022-09-02T03:22:48;1.51;;;1.51;;
68942;SDS011;60852;52.190;4.422;2022-09-02T03:25:16;1.60;;;1.60;;
68942;SDS011;60852;52.190;4.422;2022-09-02T03:27:45;1.65;;;1.65;;
68942;SDS011;60852;52.190;4.422;2022-09-02T03:30:13;1.55;;;1.55;;
68942;SDS011;60852;52.190;4.422;2022-09-02T03:32:45;1.78;;;1.78;;
68942;SDS011;60852;52.190;4.422;2022-09-02T03:35:13;1.78;;;1.78;;
68942;SDS011;60852;52.190;4.422;2022-09-02T03:37:41;1.71;;;1.71;;
68942;SDS011;60852;52.190;4.422;2022-09-02T03:40:08;1.68;;;1.68;;
68942;SDS011;60852;52.190;4.422;2022-09-02T03:42:36;1.49;;;1.49;;
68942;SDS011;60852;52.190;4.422;2022-09-02T03:45:02;1.69;;;1.69;;
68942;SDS011;60852;52.190;4.422;2022-09-02T03:47:29;1.85;;;1.85;;
68942;SDS011;60852;52.190;4.422;2022-09-02T03:49:55;1.65;;;1.65;;
68942;SDS011;60852;52.190;4.422;2022-09-02T03:52:21;1.75;;;1.75;;
68942;SDS011;60852;52.190;4.422;2022-09-02T03:54:48;1.61;;;1.61;;
68942;SDS011;60852;52.190;4.422;2022-09-02T03:57:14;1.69;;;1.69;;
68942;SDS011;60852;52.190;4.422;2022-09-02T03:59:40;1.56;;;1.56;;
68942;SDS011;60852;52.190;4.422;2022-09-02T04:02:05;1.67;;;1.67;;
68942;SDS011;60852;52.190;4.422;2022-09-02T04:04:31;1.67;;;1.67;;
68942;SDS011;60852;52.190;4.422;2022-09-02T04:06:57;1.79;;;1.79;;
68942;SDS011;60852;52.190;4.422;2022-09-02T04:09:24;1.69;;;1.69;;
68942;SDS011;60852;52.190;4.422;2022-09-02T04:11:49;1.60;;;1.60;;
68942;SDS011;60852;52.190;4.422;2022-09-02T04:14:15;1.78;;;1.78;;
68942;SDS011;60852;52.190;4.422;2022-09-02T04:16:41;1.97;;;1.97;;
68942;SDS011;60852;52.190;4.422;2022-09-02T04:19:06;1.84;;;1.84;;
68942;SDS011;60852;52.190;4.422;2022-09-02T04:21:35;1.80;;;1.80;;
68942;SDS011;60852;52.190;4.422;2022-09-02T04:24:06;1.95;;;1.95;;
68942;SDS011;60852;52.190;4.422;2022-09-02T04:26:33;2.16;;;2.16;;
68942;SDS011;60852;52.190;4.422;2022-09-02T04:28:59;2.06;;;2.06;;
68942;SDS011;60852;52.190;4.422;2022-09-02T04:31:25;2.02;;;2.02;;
68942;SDS011;60852;52.190;4.422;2022-09-02T04:33:54;1.93;;;1.93;;
68942;SDS011;60852;52.190;4.422;2022-09-02T04:36:20;1.76;;;1.76;;
68942;SDS011;60852;52.190;4.422;2022-09-02T04:38:47;1.94;;;1.94;;
68942;SDS011;60852;52.190;4.422;2022-09-02T04:41:14;1.75;;;1.75;;
68942;SDS011;60852;52.190;4.422;2022-09-02T04:43:43;1.88;;;1.88;;
68942;SDS011;60852;52.190;4.422;2022-09-02T04:46:10;2.29;;;2.29;;
68942;SDS011;60852;52.190;4.422;2022-09-02T04:48:37;1.98;;;1.98;;
68942;SDS011;60852;52.190;4.422;2022-09-02T04:51:04;1.86;;;1.86;;
68942;SDS011;60852;52.190;4.422;2022-09-02T04:53:33;1.74;;;1.74;;
68942;SDS011;60852;52.190;4.422;2022-09-02T04:55:59;2.00;;;2.00;;
68942;SDS011;60852;52.190;4.422;2022-09-02T04:58:27;1.91;;;1.91;;
68942;SDS011;60852;52.190;4.422;2022-09-02T05:00:52;2.04;;;2.04;;
68942;SDS011;60852;52.190;4.422;2022-09-02T05:03:18;2.03;;;2.03;;
68942;SDS011;60852;52.190;4.422;2022-09-02T05:05:44;2.14;;;2.14;;
68942;SDS011;60852;52.190;4.422;2022-09-02T05:08:09;1.90;;;1.90;;
68942;SDS011;60852;52.190;4.422;2022-09-02T05:10:38;1.96;;;1.96;;
68942;SDS011;60852;52.190;4.422;2022-09-02T05:13:03;2.05;;;2.05;;
68942;SDS011;60852;52.190;4.422;2022-09-02T05:15:29;2.00;;;2.00;;
68942;SDS011;60852;52.190;4.422;2022-09-02T05:17:55;1.89;;;1.89;;
68942;SDS011;60852;52.190;4.422;2022-09-02T05:20:21;2.08;;;2.08;;
68942;SDS011;60852;52.190;4.422;2022-09-02T05:22:48;1.88;;;1.88;;
68942;SDS011;60852;52.190;4.422;2022-09-02T05:25:14;2.16;;;2.16;;
68942;SDS011;60852;52.190;4.422;2022-09-02T05:27:40;2.65;;;2.65;;
68942;SDS011;60852;52.190;4.422;2022-09-02T05:30:06;2.05;;;2.05;;
68942;SDS011;60852;52.190;4.422;2022-09-02T05:32:31;1.94;;;1.94;;
68942;SDS011;60852;52.190;4.422;2022-09-02T05:34:57;1.93;;;1.93;;
68942;SDS011;60852;52.190;4.422;2022-09-02T05:37:23;1.90;;;1.90;;
68942;SDS011;60852;52.190;4.422;2022-09-02T05:39:49;2.07;;;2.07;;
68942;SDS011;60852;52.190;4.422;2022-09-02T05:42:16;2.07;;;2.07;;
68942;SDS011;60852;52.190;4.422;2022-09-02T05:44:43;1.90;;;1.90;;
68942;SDS011;60852;52.190;4.422;2022-09-02T05:47:09;2.10;;;2.10;;
68942;SDS011;60852;52.190;4.422;2022-09-02T05:49:35;2.00;;;2.00;;
68942;SDS011;60852;52.190;4.422;2022-09-02T05:52:00;2.00;;;2.00;;
68942;SDS011;60852;52.190;4.422;2022-09-02T05:54:27;1.97;;;1.97;;
68942;SDS011;60852;52.190;4.422;2022-09-02T05:57:00;2.20;;;2.20;;
68942;SDS011;60852;52.190;4.422;2022-09-02T05:59:29;2.04;;;2.04;;
68942;SDS011;60852;52.190;4.422;2022-09-02T06:01:56;1.98;;;1.98;;
68942;SDS011;60852;52.190;4.422;2022-09-02T06:04:23;2.24;;;2.24;;
68942;SDS011;60852;52.190;4.422;2022-09-02T06:06:50;2.02;;;2.02;;
68942;SDS011;60852;52.190;4.422;2022-09-02T06:09:16;2.12;;;2.12;;
68942;SDS011;60852;52.190;4.422;2022-09-02T06:11:44;2.11;;;2.11;;
68942;SDS011;60852;52.190;4.422;2022-09-02T06:14:14;3.27;;;3.27;;
68942;SDS011;60852;52.190;4.422;2022-09-02T06:16:41;2.07;;;2.07;;
68942;SDS011;60852;52.190;4.422;2022-09-02T06:19:08;1.92;;;1.92;;
68942;SDS011;60852;52.190;4.422;2022-09-02T06:21:34;2.07;;;2.07;;
68942;SDS011;60852;52.190;4.422;2022-09-02T06:24:03;2.00;;;2.00;;
68942;SDS011;60852;52.190;4.422;2022-09-02T06:26:30;2.17;;;2.17;;
68942;SDS011;60852;52.190;4.422;2022-09-02T06:28:55;2.26;;;2.26;;
68942;SDS011;60852;52.190;4.422;2022-09-02T06:31:21;2.04;;;2.04;;
68942;SDS011;60852;52.190;4.422;2022-09-02T06:33:51;2.07;;;2.07;;
68942;SDS011;60852;52.190;4.422;2022-09-02T06:36:19;2.30;;;2.30;;
68942;SDS011;60852;52.190;4.422;2022-09-02T06:38:47;2.16;;;2.16;;
68942;SDS011;60852;52.190;4.422;2022-09-02T06:41:16;2.38;;;2.38;;
68942;SDS011;60852;52.190;4.422;2022-09-02T06:43:47;2.50;;;2.50;;
68942;SDS011;60852;52.190;4.422;2022-09-02T06:46:14;2.40;;;2.40;;
68942;SDS011;60852;52.190;4.422;2022-09-02T06:48:42;2.32;;;2.32;;
68942;SDS011;60852;52.190;4.422;2022-09-02T06:51:07;2.22;;;2.22;;
68942;SDS011;60852;52.190;4.422;2022-09-02T06:53:33;2.39;;;2.39;;
68942;SDS011;60852;52.190;4.422;2022-09-02T06:55:58;2.44;;;2.44;;
68942;SDS011;60852;52.190;4.422;2022-09-02T06:58:23;2.40;;;2.40;;
68942;SDS011;60852;52.190;4.422;2022-09-02T07:00:49;2.64;;;2.64;;
68942;SDS011;60852;52.190;4.422;2022-09-02T07:03:14;2.43;;;2.43;;
68942;SDS011;60852;52.190;4.422;2022-09-02T07:06:05;2.43;;;2.43;;
68942;SDS011;60852;52.190;4.422;2022-09-02T07:08:37;2.55;;;2.55;;
68942;SDS011;60852;52.190;4.422;2022-09-02T07:11:04;2.40;;;2.40;;
68942;SDS011;60852;52.190;4.422;2022-09-02T07:13:32;2.67;;;2.67;;
68942;SDS011;60852;52.190;4.422;2022-09-02T07:15:58;2.57;;;2.57;;
68942;SDS011;60852;52.190;4.422;2022-09-02T07:18:25;2.57;;;2.57;;
68942;SDS011;60852;52.190;4.422;2022-09-02T07:20:51;2.38;;;2.38;;
68942;SDS011;60852;52.190;4.422;2022-09-02T07:23:19;2.66;;;2.66;;
68942;SDS011;60852;52.190;4.422;2022-09-02T07:25:44;2.68;;;2.68;;
68942;SDS011;60852;52.190;4.422;2022-09-02T07:28:10;2.68;;;2.68;;
68942;SDS011;60852;52.190;4.422;2022-09-02T07:30:39;2.50;;;2.50;;
68942;SDS011;60852;52.190;4.422;2022-09-02T07:33:06;2.50;;;2.50;;
68942;SDS011;60852;52.190;4.422;2022-09-02T07:35:32;2.67;;;2.67;;
68942;SDS011;60852;52.190;4.422;2022-09-02T07:37:58;2.72;;;2.72;;
68942;SDS011;60852;52.190;4.422;2022-09-02T07:40:23;2.68;;;2.68;;
68942;SDS011;60852;52.190;4.422;2022-09-02T07:42:49;2.39;;;2.39;;
68942;SDS011;60852;52.190;4.422;2022-09-02T07:45:15;2.75;;;2.75;;
68942;SDS011;60852;52.190;4.422;2022-09-02T07:47:41;2.64;;;2.64;;
68942;SDS011;60852;52.190;4.422;2022-09-02T07:50:06;2.75;;;2.75;;
68942;SDS011;60852;52.190;4.422;2022-09-02T07:52:32;2.81;;;2.81;;
68942;SDS011;60852;52.190;4.422;2022-09-02T07:54:58;2.69;;;2.69;;
68942;SDS011;60852;52.190;4.422;2022-09-02T07:57:23;2.57;;;2.57;;
68942;SDS011;60852;52.190;4.422;2022-09-02T07:59:49;2.88;;;2.88;;
68942;SDS011;60852;52.190;4.422;2022-09-02T08:02:15;3.14;;;3.14;;
68942;SDS011;60852;52.190;4.422;2022-09-02T08:04:42;3.01;;;3.01;;
68942;SDS011;60852;52.190;4.422;2022-09-02T08:07:11;2.98;;;2.98;;
68942;SDS011;60852;52.190;4.422;2022-09-02T08:09:36;3.00;;;3.00;;
68942;SDS011;60852;52.190;4.422;2022-09-02T08:12:02;2.89;;;2.89;;
68942;SDS011;60852;52.190;4.422;2022-09-02T08:14:28;3.13;;;3.13;;
68942;SDS011;60852;52.190;4.422;2022-09-02T08:16:55;3.15;;;3.15;;
68942;SDS011;60852;52.190;4.422;2022-09-02T08:19:22;2.97;;;2.97;;
68942;SDS011;60852;52.190;4.422;2022-09-02T08:21:49;3.19;;;3.19;;
68942;SDS011;60852;52.190;4.422;2022-09-02T08:24:15;3.50;;;3.50;;
68942;SDS011;60852;52.190;4.422;2022-09-02T08:26:40;3.19;;;3.19;;
68942;SDS011;60852;52.190;4.422;2022-09-02T08:29:06;3.49;;;3.49;;
68942;SDS011;60852;52.190;4.422;2022-09-02T08:31:33;3.31;;;3.31;;
68942;SDS011;60852;52.190;4.422;2022-09-02T08:34:00;3.17;;;3.17;;
68942;SDS011;60852;52.190;4.422;2022-09-02T08:36:26;3.38;;;3.38;;
68942;SDS011;60852;52.190;4.422;2022-09-02T08:38:51;3.66;;;3.66;;
68942;SDS011;60852;52.190;4.422;2022-09-02T08:41:22;3.42;;;3.42;;
68942;SDS011;60852;52.190;4.422;2022-09-02T08:43:50;3.39;;;3.39;;
68942;SDS011;60852;52.190;4.422;2022-09-02T08:46:23;3.58;;;3.58;;
68942;SDS011;60852;52.190;4.422;2022-09-02T08:48:58;3.53;;;3.53;;
68942;SDS011;60852;52.190;4.422;2022-09-02T08:51:29;3.60;;;3.60;;
68942;SDS011;60852;52.190;4.422;2022-09-02T08:54:12;3.70;;;3.70;;
68942;SDS011;60852;52.190;4.422;2022-09-02T08:56:47;3.94;;;3.94;;
68942;SDS011;60852;52.190;4.422;2022-09-02T08:59:17;3.71;;;3.71;;
68942;SDS011;60852;52.190;4.422;2022-09-02T09:01:52;3.81;;;3.81;;
68942;SDS011;60852;52.190;4.422;2022-09-02T09:07:27;4.07;;;4.07;;
68942;SDS011;60852;52.190;4.422;2022-09-02T09:10:07;3.71;;;3.71;;
68942;SDS011;60852;52.190;4.422;2022-09-02T09:12:47;4.08;;;4.08;;
68942;SDS011;60852;52.190;4.422;2022-09-02T09:18:37;3.83;;;3.83;;
68942;SDS011;60852;52.190;4.422;2022-09-02T09:21:05;4.60;;;4.60;;
68942;SDS011;60852;52.190;4.422;2022-09-02T09:23:32;3.99;;;3.99;;
68942;SDS011;60852;52.190;4.422;2022-09-02T09:26:10;4.16;;;4.16;;
68942;SDS011;60852;52.190;4.422;2022-09-02T09:28:47;4.24;;;4.24;;
68942;SDS011;60852;52.190;4.422;2022-09-02T09:31:18;4.14;;;4.14;;
68942;SDS011;60852;52.190;4.422;2022-09-02T09:33:58;4.54;;;4.54;;
68942;SDS011;60852;52.190;4.422;2022-09-02T09:41:43;4.60;;;4.60;;
68942;SDS011;60852;52.190;4.422;2022-09-02T09:44:10;4.14;;;4.14;;
68942;SDS011;60852;52.190;4.422;2022-09-02T09:47:02;4.19;;;4.19;;
68942;SDS011;60852;52.190;4.422;2022-09-02T09:49:32;4.28;;;4.28;;
68942;SDS011;60852;52.190;4.422;2022-09-02T09:51:59;4.15;;;4.15;;
68942;SDS011;60852;52.190;4.422;2022-09-02T09:54:25;4.01;;;4.01;;
68942;SDS011;60852;52.190;4.422;2022-09-02T09:56:52;4.16;;;4.16;;
68942;SDS011;60852;52.190;4.422;2022-09-02T09:59:31;4.35;;;4.35;;
68942;SDS011;60852;52.190;4.422;2022-09-02T10:02:09;4.61;;;4.61;;
68942;SDS011;60852;52.190;4.422;2022-09-02T10:04:51;4.37;;;4.37;;
68942;SDS011;60852;52.190;4.422;2022-09-02T10:07:38;4.54;;;4.54;;
68942;SDS011;60852;52.190;4.422;2022-09-02T10:10:11;4.38;;;4.38;;
68942;SDS011;60852;52.190;4.422;2022-09-02T10:12:46;4.15;;;4.15;;
68942;SDS011;60852;52.190;4.422;2022-09-02T10:15:14;4.44;;;4.44;;
68942;SDS011;60852;52.190;4.422;2022-09-02T10:17:59;4.41;;;4.41;;
68942;SDS011;60852;52.190;4.422;2022-09-02T10:20:48;4.19;;;4.19;;
68942;SDS011;60852;52.190;4.422;2022-09-02T10:23:43;5.06;;;5.06;;
68942;SDS011;60852;52.190;4.422;2022-09-02T10:26:24;4.86;;;4.86;;
68942;SDS011;60852;52.190;4.422;2022-09-02T10:29:07;5.02;;;5.02;;
68942;SDS011;60852;52.190;4.422;2022-09-02T10:35:03;5.28;;;5.28;;
68942;SDS011;60852;52.190;4.422;2022-09-02T10:37:41;5.01;;;5.01;;
68942;SDS011;60852;52.190;4.422;2022-09-02T10:40:42;4.95;;;4.95;;
68942;SDS011;60852;52.190;4.422;2022-09-02T10:45:57;5.09;;;5.09;;
68942;SDS011;60852;52.190;4.422;2022-09-02T10:56:10;4.78;;;4.78;;
68942;SDS011;60852;52.190;4.422;2022-09-02T10:58:44;4.96;;;4.96;;
68942;SDS011;60852;52.190;4.422;2022-09-02T11:01:20;5.19;;;5.19;;
68942;SDS011;60852;52.190;4.422;2022-09-02T11:06:29;5.33;;;5.33;;
68942;SDS011;60852;52.190;4.422;2022-09-02T11:09:05;5.66;;;5.66;;
68942;SDS011;60852;52.190;4.422;2022-09-02T11:11:41;5.20;;;5.20;;
68942;SDS011;60852;52.190;4.422;2022-09-02T11:14:22;5.60;;;5.60;;
68942;SDS011;60852;52.190;4.422;2022-09-02T11:17:32;6.03;;;6.03;;
68942;SDS011;60852;52.190;4.422;2022-09-02T11:20:40;5.28;;;5.28;;
68942;SDS011;60852;52.190;4.422;2022-09-02T11:23:21;5.34;;;5.34;;
68942;SDS011;60852;52.190;4.422;2022-09-02T11:29:21;5.58;;;5.58;;
68942;SDS011;60852;52.190;4.422;2022-09-02T11:32:17;5.23;;;5.23;;
68942;SDS011;60852;52.190;4.422;2022-09-02T11:34:51;5.21;;;5.21;;
68942;SDS011;60852;52.190;4.422;2022-09-02T11:39:57;5.15;;;5.15;;
68942;SDS011;60852;52.190;4.422;2022-09-02T11:42:49;5.81;;;5.81;;
68942;SDS011;60852;52.190;4.422;2022-09-02T11:45:25;5.18;;;5.18;;
68942;SDS011;60852;52.190;4.422;2022-09-02T11:48:35;5.99;;;5.99;;
68942;SDS011;60852;52.190;4.422;2022-09-02T11:51:53;5.58;;;5.58;;
68942;SDS011;60852;52.190;4.422;2022-09-02T11:54:34;5.67;;;5.67;;
68942;SDS011;60852;52.190;4.422;2022-09-02T11:57:05;6.12;;;6.12;;
68942;SDS011;60852;52.190;4.422;2022-09-02T12:02:30;5.30;;;5.30;;
68942;SDS011;60852;52.190;4.422;2022-09-02T12:05:31;5.45;;;5.45;;
68942;SDS011;60852;52.190;4.422;2022-09-02T12:07:58;5.71;;;5.71;;
68942;SDS011;60852;52.190;4.422;2022-09-02T12:13:05;4.58;;;4.58;;
68942;SDS011;60852;52.190;4.422;2022-09-02T12:15:32;4.60;;;4.60;;
68942;SDS011;60852;52.190;4.422;2022-09-02T12:18:07;4.71;;;4.71;;
68942;SDS011;60852;52.190;4.422;2022-09-02T12:23:09;4.66;;;4.66;;
68942;SDS011;60852;52.190;4.422;2022-09-02T12:25:55;4.30;;;4.30;;
68942;SDS011;60852;52.190;4.422;2022-09-02T12:28:24;4.22;;;4.22;;
68942;SDS011;60852;52.190;4.422;2022-09-02T12:33:32;4.40;;;4.40;;
68942;SDS011;60852;52.190;4.422;2022-09-02T12:35:59;3.99;;;3.99;;
68942;SDS011;60852;52.190;4.422;2022-09-02T12:38:29;3.43;;;3.43;;
68942;SDS011;60852;52.190;4.422;2022-09-02T12:43:32;3.36;;;3.36;;
68942;SDS011;60852;52.190;4.422;2022-09-02T12:46:17;3.32;;;3.32;;
68942;SDS011;60852;52.190;4.422;2022-09-02T12:48:59;3.52;;;3.52;;
68942;SDS011;60852;52.190;4.422;2022-09-02T12:51:52;3.37;;;3.37;;
68942;SDS011;60852;52.190;4.422;2022-09-02T12:54:30;3.23;;;3.23;;
68942;SDS011;60852;52.190;4.422;2022-09-02T12:57:02;3.39;;;3.39;;
68942;SDS011;60852;52.190;4.422;2022-09-02T12:59:30;3.13;;;3.13;;
68942;SDS011;60852;52.190;4.422;2022-09-02T13:02:16;3.05;;;3.05;;
68942;SDS011;60852;52.190;4.422;2022-09-02T13:05:12;3.21;;;3.21;;
68942;SDS011;60852;52.190;4.422;2022-09-02T13:16:34;2.98;;;2.98;;
68942;SDS011;60852;52.190;4.422;2022-09-02T13:19:31;3.23;;;3.23;;
68942;SDS011;60852;52.190;4.422;2022-09-02T13:22:18;3.15;;;3.15;;
68942;SDS011;60852;52.190;4.422;2022-09-02T13:33:16;3.38;;;3.38;;
68942;SDS011;60852;52.190;4.422;2022-09-02T13:35:43;3.38;;;3.38;;
68942;SDS011;60852;52.190;4.422;2022-09-02T13:38:12;3.37;;;3.37;;
68942;SDS011;60852;52.190;4.422;2022-09-02T13:40:38;3.35;;;3.35;;
68942;SDS011;60852;52.190;4.422;2022-09-02T13:45:38;3.81;;;3.81;;
68942;SDS011;60852;52.190;4.422;2022-09-02T13:48:06;3.64;;;3.64;;
68942;SDS011;60852;52.190;4.422;2022-09-02T13:50:35;3.50;;;3.50;;
68942;SDS011;60852;52.190;4.422;2022-09-02T13:53:06;3.39;;;3.39;;
68942;SDS011;60852;52.190;4.422;2022-09-02T13:55:35;3.78;;;3.78;;
68942;SDS011;60852;52.190;4.422;2022-09-02T13:58:19;3.98;;;3.98;;
68942;SDS011;60852;52.190;4.422;2022-09-02T14:01:15;3.93;;;3.93;;
68942;SDS011;60852;52.190;4.422;2022-09-02T14:03:51;3.85;;;3.85;;
68942;SDS011;60852;52.190;4.422;2022-09-02T14:06:21;4.04;;;4.04;;
68942;SDS011;60852;52.190;4.422;2022-09-02T14:08:55;3.97;;;3.97;;
68942;SDS011;60852;52.190;4.422;2022-09-02T14:11:26;3.92;;;3.92;;
68942;SDS011;60852;52.190;4.422;2022-09-02T14:14:03;3.88;;;3.88;;
68942;SDS011;60852;52.190;4.422;2022-09-02T14:16:30;3.64;;;3.64;;
68942;SDS011;60852;52.190;4.422;2022-09-02T14:19:02;3.71;;;3.71;;
68942;SDS011;60852;52.190;4.422;2022-09-02T14:21:33;3.65;;;3.65;;
68942;SDS011;60852;52.190;4.422;2022-09-02T14:23:59;3.38;;;3.38;;
68942;SDS011;60852;52.190;4.422;2022-09-02T14:26:31;3.64;;;3.64;;
68942;SDS011;60852;52.190;4.422;2022-09-02T14:29:00;3.37;;;3.37;;
68942;SDS011;60852;52.190;4.422;2022-09-02T14:31:29;3.71;;;3.71;;
68942;SDS011;60852;52.190;4.422;2022-09-02T14:33:58;4.05;;;4.05;;
68942;SDS011;60852;52.190;4.422;2022-09-02T14:39:11;3.60;;;3.60;;
68942;SDS011;60852;52.190;4.422;2022-09-02T14:42:12;3.46;;;3.46;;
68942;SDS011;60852;52.190;4.422;2022-09-02T14:44:32;3.15;;;3.15;;
68942;SDS011;60852;52.190;4.422;2022-09-02T14:47:00;3.46;;;3.46;;
68942;SDS011;60852;52.190;4.422;2022-09-02T14:49:31;3.11;;;3.11;;
68942;SDS011;60852;52.190;4.422;2022-09-02T14:51:58;3.14;;;3.14;;
68942;SDS011;60852;52.190;4.422;2022-09-02T14:54:44;3.14;;;3.14;;
68942;SDS011;60852;52.190;4.422;2022-09-02T14:57:29;3.25;;;3.25;;
68942;SDS011;60852;52.190;4.422;2022-09-02T15:00:09;3.35;;;3.35;;
68942;SDS011;60852;52.190;4.422;2022-09-02T15:02:39;3.21;;;3.21;;
68942;SDS011;60852;52.190;4.422;2022-09-02T15:05:09;3.24;;;3.24;;
68942;SDS011;60852;52.190;4.422;2022-09-02T15:07:38;3.18;;;3.18;;
68942;SDS011;60852;52.190;4.422;2022-09-02T15:10:05;3.28;;;3.28;;
68942;SDS011;60852;52.190;4.422;2022-09-02T15:12:36;3.19;;;3.19;;
68942;SDS011;60852;52.190;4.422;2022-09-02T15:15:08;3.17;;;3.17;;
68942;SDS011;60852;52.190;4.422;2022-09-02T15:17:34;3.36;;;3.36;;
68942;SDS011;60852;52.190;4.422;2022-09-02T15:19:59;3.22;;;3.22;;
68942;SDS011;60852;52.190;4.422;2022-09-02T15:22:25;3.21;;;3.21;;
68942;SDS011;60852;52.190;4.422;2022-09-02T15:24:51;3.37;;;3.37;;
68942;SDS011;60852;52.190;4.422;2022-09-02T15:27:17;3.19;;;3.19;;
68942;SDS011;60852;52.190;4.422;2022-09-02T15:29:42;3.54;;;3.54;;
68942;SDS011;60852;52.190;4.422;2022-09-02T15:32:08;3.48;;;3.48;;
68942;SDS011;60852;52.190;4.422;2022-09-02T15:34:33;3.40;;;3.40;;
68942;SDS011;60852;52.190;4.422;2022-09-02T15:37:00;3.45;;;3.45;;
68942;SDS011;60852;52.190;4.422;2022-09-02T15:39:26;3.35;;;3.35;;
68942;SDS011;60852;52.190;4.422;2022-09-02T15:41:52;3.38;;;3.38;;
68942;SDS011;60852;52.190;4.422;2022-09-02T15:44:21;3.24;;;3.24;;
68942;SDS011;60852;52.190;4.422;2022-09-02T15:46:50;3.09;;;3.09;;
68942;SDS011;60852;52.190;4.422;2022-09-02T15:49:19;3.23;;;3.23;;
68942;SDS011;60852;52.190;4.422;2022-09-02T15:51:46;3.93;;;3.93;;
68942;SDS011;60852;52.190;4.422;2022-09-02T15:54:16;4.31;;;4.31;;
68942;SDS011;60852;52.190;4.422;2022-09-02T15:56:44;4.09;;;4.09;;
68942;SDS011;60852;52.190;4.422;2022-09-02T15:59:12;3.67;;;3.67;;
68942;SDS011;60852;52.190;4.422;2022-09-02T16:01:40;3.62;;;3.62;;
68942;SDS011;60852;52.190;4.422;2022-09-02T16:04:08;3.78;;;3.78;;
68942;SDS011;60852;52.190;4.422;2022-09-02T16:06:35;4.61;;;4.61;;
68942;SDS011;60852;52.190;4.422;2022-09-02T16:09:04;4.84;;;4.84;;
68942;SDS011;60852;52.190;4.422;2022-09-02T16:11:30;3.68;;;3.68;;
68942;SDS011;60852;52.190;4.422;2022-09-02T16:13:55;3.40;;;3.40;;
68942;SDS011;60852;52.190;4.422;2022-09-02T16:16:21;3.53;;;3.53;;
68942;SDS011;60852;52.190;4.422;2022-09-02T16:18:52;3.63;;;3.63;;